Time;durP1;ratioP1;P1;durP2;ratioP2;P2;SDS_P1;SDS_P2;PMS_P1;PMS_P2;Temp;Humidity;BMP_temperature;BMP_pressure;BME280_temperature;BME280_humidity;BME280_pressure;Samples;Min_cycle;Max_cycle;Signal;HPM_P1;HPM_P2
2022/10/19 00:00:14;;;;;;;0.08;0.08;;;;;;;16.37;64.61;101747.84;7363330;19;20369;-55
2022/10/19 00:02:39;;;;;;;0.00;0.00;;;;;;;16.38;64.70;101736.41;7360933;19;20018;-56
2022/10/19 00:05:05;;;;;;;0.08;0.08;;;;;;;16.37;64.93;101732.03;7361693;19;20022;-57
2022/10/19 00:07:30;;;;;;;0.00;0.00;;;;;;;16.40;65.02;101729.31;7360795;19;20343;-57
2022/10/19 00:09:55;;;;;;;0.00;0.00;;;;;;;16.41;64.70;101725.75;7362654;19;20014;-57
2022/10/19 00:12:21;;;;;;;0.00;0.00;;;;;;;16.43;64.78;101723.97;7361173;19;21472;-57
2022/10/19 00:14:46;;;;;;;0.00;0.00;;;;;;;16.44;64.84;101712.50;7362859;19;20056;-58
2022/10/19 00:17:12;;;;;;;0.00;0.00;;;;;;;16.45;65.09;101714.22;7360487;19;20097;-58
2022/10/19 00:19:37;;;;;;;0.00;0.00;;;;;;;16.45;65.09;101711.56;7362805;19;20014;-56
2022/10/19 00:22:02;;;;;;;0.00;0.00;;;;;;;16.45;64.85;101701.88;7362994;19;20033;-57
2022/10/19 00:24:29;;;;;;;0.10;0.10;;;;;;;16.46;65.04;101697.47;7361781;19;20018;-58
2022/10/19 00:26:54;;;;;;;0.03;0.03;;;;;;;16.46;65.12;101703.59;7361298;19;20023;-54
2022/10/19 00:29:21;;;;;;;0.00;0.00;;;;;;;16.48;65.27;101711.50;7361990;19;20019;-57
2022/10/19 00:31:48;;;;;;;0.00;0.00;;;;;;;16.49;64.99;101710.56;7360047;19;20050;-57
2022/10/19 00:34:14;;;;;;;0.00;0.00;;;;;;;16.48;65.23;101703.59;7362228;19;20078;-57
2022/10/19 00:36:40;;;;;;;0.00;0.00;;;;;;;16.50;64.85;101709.66;7360191;19;20011;-54
2022/10/19 00:39:09;;;;;;;0.00;0.00;;;;;;;16.50;65.25;101709.66;7361930;19;20010;-57
2022/10/19 00:41:35;;;;;;;0.00;0.00;;;;;;;16.50;65.11;101710.53;7362160;19;20016;-57
2022/10/19 00:44:26;;;;;;;0.00;0.00;;;;;;;16.52;64.92;101702.56;7360651;19;20050;-57
2022/10/19 00:46:52;;;;;;;0.00;0.00;;;;;;;16.51;65.02;101692.91;7358761;19;20023;-57
2022/10/19 00:49:27;;;;;;;0.00;0.00;;;;;;;16.52;64.83;101694.63;7360778;19;20017;-57
2022/10/19 00:51:57;;;;;;;0.00;0.00;;;;;;;16.53;64.96;101693.75;7363202;19;20768;-57
2022/10/19 00:54:23;;;;;;;0.08;0.08;;;;;;;16.49;65.45;101689.47;7360555;19;20023;-56
2022/10/19 00:56:52;;;;;;;0.05;0.05;;;;;;;16.38;65.07;101667.88;7359685;19;20121;-56
2022/10/19 00:59:19;;;;;;;0.08;0.08;;;;;;;16.51;65.18;101695.56;7360232;19;20023;-57
2022/10/19 01:01:46;;;;;;;0.10;0.10;;;;;;;16.46;65.25;101681.66;7362113;19;21122;-57
2022/10/19 01:04:13;;;;;;;0.08;0.08;;;;;;;16.43;65.00;101665.97;7360396;19;20026;-57
2022/10/19 01:06:40;;;;;;;0.00;0.00;;;;;;;16.51;65.44;101669.19;7359587;19;20117;-57
2022/10/19 01:09:06;;;;;;;0.08;0.08;;;;;;;16.48;65.25;101666.66;7360170;19;20571;-57
2022/10/19 01:11:41;;;;;;;0.00;0.00;;;;;;;16.54;64.23;101671.75;7360853;19;20011;-54
2022/10/19 01:14:30;;;;;;;0.08;0.08;;;;;;;16.53;64.68;101668.25;7359359;19;20018;-57
2022/10/19 01:17:22;;;;;;;0.00;0.00;;;;;;;16.54;64.27;101674.38;7363122;19;19998;-57
2022/10/19 01:20:12;;;;;;;0.08;0.08;;;;;;;16.51;64.90;101680.59;7262843;19;2004492;-57
2022/10/19 01:23:05;;;;;;;0.00;0.00;;;;;;;16.52;64.72;101670.91;7261289;19;2004522;-57
2022/10/19 01:25:54;;;;;;;0.00;0.00;;;;;;;16.48;65.13;101664.91;7259183;19;2004533;-58
2022/10/19 01:28:31;;;;;;;0.00;0.00;;;;;;;16.45;65.30;101670.25;7259567;19;2004302;-57
2022/10/19 01:31:11;;;;;;;;;;;;;;;16.51;63.48;101658.66;7363817;19;20878;-57
2022/10/19 01:33:49;;;;;;;0.00;0.00;;;;;;;16.47;64.45;101663.13;7362357;19;19923;-58
2022/10/19 01:36:36;;;;;;;0.00;0.00;;;;;;;16.47;64.09;101670.19;7358312;19;20017;-56
2022/10/19 01:39:23;;;;;;;0.00;0.00;;;;;;;16.38;64.65;101658.19;7362434;19;20045;-57
2022/10/19 01:42:11;;;;;;;0.00;0.00;;;;;;;16.38;65.18;101673.16;7363810;19;20027;-57
2022/10/19 01:44:57;;;;;;;0.00;0.00;;;;;;;16.38;64.99;101673.16;7360348;19;20074;-57
2022/10/19 01:47:29;;;;;;;0.00;0.00;;;;;;;16.32;65.57;101668.91;7364317;19;20011;-55
2022/10/19 01:49:59;;;;;;;0.00;0.00;;;;;;;16.28;65.69;101668.16;7360717;19;20033;-57
2022/10/19 01:52:26;;;;;;;0.00;0.00;;;;;;;16.15;66.81;101631.69;7357716;19;20015;-56
2022/10/19 01:54:56;;;;;;;0.00;0.00;;;;;;;16.24;66.40;101650.69;7362229;19;20029;-56
2022/10/19 01:57:39;;;;;;;0.00;0.00;;;;;;;16.24;66.02;101650.69;7362107;19;20528;-57
2022/10/19 02:00:07;;;;;;;0.00;0.00;;;;;;;16.20;67.11;101637.66;7361144;19;20021;-58
2022/10/19 02:02:37;;;;;;;0.00;0.00;;;;;;;16.18;67.07;101629.81;7360846;19;20021;-58
2022/10/19 02:05:04;;;;;;;0.00;0.00;;;;;;;16.12;66.74;101614.19;7359991;19;20482;-56
2022/10/19 02:07:31;;;;;;;0.00;0.00;;;;;;;16.15;67.07;101623.78;7358681;19;20010;-57
2022/10/19 02:09:57;;;;;;;0.00;0.00;;;;;;;16.07;66.80;101595.03;7360110;19;20030;-55
2022/10/19 02:12:25;;;;;;;0.03;0.03;;;;;;;16.12;67.20;101611.56;7361765;19;20114;-56
2022/10/19 02:14:55;;;;;;;0.10;0.10;;;;;;;16.11;66.98;101603.69;7359037;19;20014;-57
2022/10/19 02:17:26;;;;;;;0.10;0.10;;;;;;;16.08;66.68;101597.63;7359542;19;20011;-57
2022/10/19 02:19:53;;;;;;;0.00;0.00;;;;;;;16.04;66.88;101587.22;7360280;19;20029;-57
2022/10/19 02:22:19;;;;;;;0.00;0.00;;;;;;;15.93;67.47;101563.00;7360431;19;20042;-58
2022/10/19 02:24:45;;;;;;;0.00;0.00;;;;;;;16.05;66.93;101586.31;7360799;19;20090;-58
2022/10/19 02:27:11;;;;;;;0.05;0.05;;;;;;;16.04;67.50;101580.16;7358120;19;21585;-57
2022/10/19 02:29:37;;;;;;;0.00;0.00;;;;;;;16.04;67.25;101576.69;7361842;19;20444;-57
2022/10/19 02:32:03;;;;;;;0.00;0.00;;;;;;;16.01;67.66;101571.50;7359968;19;20022;-58
2022/10/19 02:34:29;;;;;;;0.00;0.00;;;;;;;15.95;67.59;101563.78;7357613;19;20014;-57
2022/10/19 02:36:55;;;;;;;0.00;0.00;;;;;;;15.99;67.58;101560.16;7358506;19;20014;-57
2022/10/19 02:39:21;;;;;;;0.00;0.00;;;;;;;15.97;67.85;101548.81;7360000;19;20807;-57
2022/10/19 02:42:04;;;;;;;0.00;0.00;;;;;;;16.01;66.56;101545.16;7360993;19;20275;-57
2022/10/19 02:44:38;;;;;;;0.00;0.00;;;;;;;15.88;67.33;101531.53;7359169;19;20012;-57
2022/10/19 02:47:14;;;;;;;0.00;0.00;;;;;;;15.99;67.08;101549.63;7359072;19;20023;-57
2022/10/19 02:49:41;;;;;;;0.00;0.00;;;;;;;15.91;67.64;101541.09;7356791;19;20011;-57
2022/10/19 02:52:09;;;;;;;0.00;0.00;;;;;;;15.96;67.97;101552.34;7357601;19;20089;-57
2022/10/19 02:54:36;;;;;;;0.03;0.03;;;;;;;15.95;67.96;101547.97;7362209;19;20031;-57
2022/10/19 02:57:20;;;;;;;0.08;0.08;;;;;;;15.98;66.94;101547.91;7359790;19;20015;-56
2022/10/19 02:59:45;;;;;;;0.00;0.00;;;;;;;15.95;68.04;101526.91;7356394;19;20014;-57
2022/10/19 03:02:12;;;;;;;0.05;0.05;;;;;;;15.94;68.11;101530.47;7356810;19;20043;-58
2022/10/19 03:04:37;;;;;;;0.00;0.00;;;;;;;15.95;68.07;101524.28;7350649;19;20025;-57
2022/10/19 03:07:03;;;;;;;0.03;0.03;;;;;;;15.92;67.80;101511.22;7360015;19;20014;-55
2022/10/19 03:09:28;;;;;;;0.00;0.00;;;;;;;15.95;67.71;101506.69;7358514;19;20460;-56
2022/10/19 03:11:56;;;;;;;0.00;0.00;;;;;;;15.98;67.26;101513.66;7359064;19;20030;-58
2022/10/19 03:14:22;;;;;;;0.00;0.00;;;;;;;15.95;67.51;101498.78;7357071;19;20510;-57
2022/10/19 03:16:47;;;;;;;0.00;0.00;;;;;;;15.79;67.87;101469.47;7360062;19;20010;-57
2022/10/19 03:19:13;;;;;;;0.03;0.03;;;;;;;15.93;67.31;101481.31;7349674;19;20090;-57
2022/10/19 03:21:38;;;;;;;0.00;0.00;;;;;;;15.94;67.32;101477.78;7362580;19;20374;-57
2022/10/19 03:24:04;;;;;;;0.00;0.00;;;;;;;15.92;67.59;101480.47;7359409;19;20017;-57
2022/10/19 03:26:29;;;;;;;0.00;0.00;;;;;;;15.92;67.23;101479.63;7361921;19;20018;-57
2022/10/19 03:28:54;;;;;;;0.00;0.00;;;;;;;15.92;67.27;101484.88;7360540;19;20010;-57
2022/10/19 03:31:20;;;;;;;0.00;0.00;;;;;;;15.90;67.43;101486.69;7362646;19;20014;-57
2022/10/19 03:33:45;;;;;;;0.00;0.00;;;;;;;15.88;67.42;101484.09;7362493;19;20450;-57
2022/10/19 03:36:30;;;;;;;0.10;0.10;;;;;;;15.93;66.40;101486.59;7360887;19;20006;-56
2022/10/19 03:38:57;;;;;;;0.00;0.00;;;;;;;15.90;67.64;101489.31;7359448;19;20013;-56
2022/10/19 03:41:24;;;;;;;;;;;;;;;15.92;65.48;101491.00;7362776;19;20875;-57
2022/10/19 03:43:50;;;;;;;0.00;0.00;;;;;;;15.88;67.06;101477.97;7361660;19;19948;-55
2022/10/19 03:46:16;;;;;;;0.10;0.10;;;;;;;15.87;67.51;101481.53;7361901;19;20018;-55
2022/10/19 03:48:41;;;;;;;0.00;0.00;;;;;;;15.79;67.28;101469.47;7361838;19;20006;-56
2022/10/19 03:51:10;;;;;;;0.00;0.00;;;;;;;15.85;67.32;101473.66;7361520;19;20010;-58
2022/10/19 03:53:37;;;;;;;0.00;0.00;;;;;;;15.82;67.33;101474.63;7362323;19;20011;-57
2022/10/19 03:56:09;;;;;;;0.00;0.00;;;;;;;15.85;67.55;101478.06;7361745;19;20010;-56
2022/10/19 03:58:36;;;;;;;0.00;0.00;;;;;;;15.80;67.94;101476.44;7359753;19;20018;-57
2022/10/19 04:01:06;;;;;;;0.00;0.00;;;;;;;15.84;67.55;101471.94;7362737;19;20030;-57
2022/10/19 04:03:32;;;;;;;0.00;0.00;;;;;;;15.81;67.46;101467.66;7359209;19;20688;-57
2022/10/19 04:06:05;;;;;;;0.00;0.00;;;;;;;15.87;67.02;101473.63;7360842;19;20027;-57
2022/10/19 04:08:31;;;;;;;0.00;0.00;;;;;;;15.83;67.53;101468.44;7360590;19;20015;-57
2022/10/19 04:11:05;;;;;;;0.00;0.00;;;;;;;15.55;67.24;101407.00;7362621;19;20006;-57
2022/10/19 04:13:31;;;;;;;0.00;0.00;;;;;;;15.73;67.63;101438.06;7357797;19;20007;-58
2022/10/19 04:15:57;;;;;;;0.00;0.00;;;;;;;15.82;67.58;101447.44;7360128;19;20084;-56
2022/10/19 04:18:23;;;;;;;0.03;0.03;;;;;;;15.82;67.44;101450.94;7360683;19;20007;-56
2022/10/19 04:20:55;;;;;;;0.08;0.08;;;;;;;15.85;67.55;101442.06;7346433;19;20036;-55
2022/10/19 04:23:20;;;;;;;0.10;0.10;;;;;;;15.81;67.98;101430.78;7353610;19;20982;-57
2022/10/19 04:25:45;;;;;;;0.00;0.00;;;;;;;15.81;68.00;101436.06;7361130;19;20117;-57
2022/10/19 04:28:11;;;;;;;0.00;0.00;;;;;;;15.81;67.70;101436.06;7358824;19;20061;-54
2022/10/19 04:30:36;;;;;;;0.08;0.08;;;;;;;15.79;67.84;101435.22;7358321;19;20755;-56
2022/10/19 04:33:01;;;;;;;0.00;0.00;;;;;;;15.79;68.20;101443.13;7360147;19;20142;-57
2022/10/19 04:35:27;;;;;;;0.00;0.00;;;;;;;15.77;68.23;101433.56;7356328;19;20014;-57
2022/10/19 04:37:52;;;;;;;0.00;0.00;;;;;;;15.78;68.35;101433.50;7357507;19;20010;-57
2022/10/19 04:40:18;;;;;;;0.00;0.00;;;;;;;15.78;68.34;101422.97;7356439;19;20014;-57
2022/10/19 04:42:43;;;;;;;0.00;0.00;;;;;;;15.77;68.54;101408.09;7361334;19;20011;-58
2022/10/19 04:45:09;;;;;;;0.00;0.00;;;;;;;15.76;68.54;101395.84;7355790;19;20007;-57
2022/10/19 04:47:34;;;;;;;0.00;0.00;;;;;;;15.75;68.86;101401.13;7361065;19;20026;-58
2022/10/19 04:50:00;;;;;;;0.00;0.00;;;;;;;15.67;68.62;101385.59;7357408;19;20377;-57
2022/10/19 04:52:25;;;;;;;0.00;0.00;;;;;;;15.71;68.53;101403.03;7359242;19;20007;-54
2022/10/19 04:54:50;;;;;;;0.00;0.00;;;;;;;15.69;68.99;101389.03;7357825;19;20106;-57
2022/10/19 04:57:16;;;;;;;0.10;0.10;;;;;;;15.68;69.65;101399.63;7361581;19;20010;-55
2022/10/19 04:59:41;;;;;;;0.00;0.00;;;;;;;15.64;69.28;101390.94;7357272;19;20050;-57
2022/10/19 05:02:07;;;;;;;0.00;0.00;;;;;;;15.62;69.86;101397.16;7357355;19;20099;-57
2022/10/19 05:04:32;;;;;;;0.00;0.00;;;;;;;15.60;70.18;101394.56;7356482;19;20006;-57
2022/10/19 05:06:57;;;;;;;0.10;0.10;;;;;;;15.56;69.96;101401.72;7359727;19;20027;-57
2022/10/19 05:09:23;;;;;;;0.00;0.00;;;;;;;15.53;69.56;101398.31;7359037;19;20538;-56
2022/10/19 05:11:49;;;;;;;0.00;0.00;;;;;;;15.51;69.78;101397.47;7358306;19;20604;-56
2022/10/19 05:14:15;;;;;;;0.00;0.00;;;;;;;15.47;69.64;101394.09;7358995;19;20018;-57
2022/10/19 05:16:40;;;;;;;0.03;0.03;;;;;;;15.44;69.60;101377.53;7358424;19;20021;-57
2022/10/19 05:19:06;;;;;;;0.00;0.00;;;;;;;15.40;70.33;101365.38;7359108;19;20838;-57
2022/10/19 05:21:31;;;;;;;0.00;0.00;;;;;;;15.36;70.65;101356.75;7357979;19;20014;-55
2022/10/19 05:23:57;;;;;;;0.00;0.00;;;;;;;15.26;70.65;101337.75;7357840;19;20129;-57
2022/10/19 05:26:25;;;;;;;0.00;0.00;;;;;;;15.34;70.61;101355.91;7354882;19;20033;-57
2022/10/19 05:29:00;;;;;;;0.00;0.00;;;;;;;15.24;70.41;101336.06;7357955;19;20036;-56
2022/10/19 05:31:31;;;;;;;0.00;0.00;;;;;;;15.24;70.08;101336.94;7356790;19;20010;-56
2022/10/19 05:33:57;;;;;;;0.00;0.00;;;;;;;15.13;71.03;101331.16;7356256;19;20006;-57
2022/10/19 05:36:31;;;;;;;0.00;0.00;;;;;;;15.29;70.63;101358.69;7356749;19;20026;-56
2022/10/19 05:38:57;;;;;;;0.00;0.00;;;;;;;15.25;71.20;101367.59;7356694;19;20354;-57
2022/10/19 05:41:24;;;;;;;0.00;0.00;;;;;;;15.24;71.31;101371.13;7357451;19;20031;-57
2022/10/19 05:43:55;;;;;;;0.10;0.10;;;;;;;15.26;70.84;101373.75;7355377;19;20462;-57
2022/10/19 05:46:21;;;;;;;0.00;0.00;;;;;;;15.22;70.96;101365.06;7359207;19;20016;-57
2022/10/19 05:48:47;;;;;;;0.00;0.00;;;;;;;15.22;71.43;101346.66;7357310;19;22544;-56
2022/10/19 05:51:16;;;;;;;0.00;0.00;;;;;;;15.22;71.33;101357.19;7358510;19;20916;-57
2022/10/19 05:53:41;;;;;;;0.00;0.00;;;;;;;15.22;71.73;101348.44;7356718;19;20981;-57
2022/10/19 05:56:11;;;;;;;0.00;0.00;;;;;;;15.22;71.22;101357.19;7357620;19;20010;-57
2022/10/19 05:58:36;;;;;;;0.00;0.00;;;;;;;15.21;71.67;101363.34;7348585;19;20025;-57
2022/10/19 06:01:02;;;;;;;0.00;0.00;;;;;;;15.09;71.51;101340.03;7362682;19;20026;-57
2022/10/19 06:03:28;;;;;;;0.00;0.00;;;;;;;15.07;71.48;101336.63;7359127;19;20003;-54
2022/10/19 06:05:54;;;;;;;0.00;0.00;;;;;;;15.20;71.29;101358.97;7357945;19;20367;-57
2022/10/19 06:08:21;;;;;;;0.10;0.10;;;;;;;15.19;71.55;101356.41;7362155;19;20027;-58
2022/10/19 06:10:48;;;;;;;0.10;0.10;;;;;;;15.19;71.74;101365.16;7361608;19;20037;-57
2022/10/19 06:13:18;;;;;;;0.00;0.00;;;;;;;15.20;71.41;101364.25;7346556;19;20752;-57
2022/10/19 06:15:48;;;;;;;0.00;0.00;;;;;;;15.15;71.82;101360.88;7334139;19;20024;-57
2022/10/19 06:18:13;;;;;;;0.00;0.00;;;;;;;15.14;72.04;101369.69;7361567;19;20007;-57
2022/10/19 06:20:41;;;;;;;0.00;0.00;;;;;;;15.00;72.35;101346.47;7359376;19;21971;-56
2022/10/19 06:23:07;;;;;;;0.05;0.05;;;;;;;15.09;72.02;101355.81;7348797;19;20560;-56
2022/10/19 06:25:34;;;;;;;0.00;0.00;;;;;;;15.09;73.05;101345.31;7345246;19;20035;-57
2022/10/19 06:28:00;;;;;;;0.10;0.10;;;;;;;15.07;72.55;101341.00;7353644;19;20603;-57
2022/10/19 06:30:26;;;;;;;0.00;0.00;;;;;;;15.05;73.03;101338.41;7362569;19;20352;-57
2022/10/19 06:32:51;;;;;;;0.00;0.00;;;;;;;14.99;72.81;101328.09;7363019;19;20049;-57
2022/10/19 06:35:17;;;;;;;0.00;0.00;;;;;;;14.96;72.76;101334.31;7354431;19;21107;-54
2022/10/19 06:37:43;;;;;;;0.00;0.00;;;;;;;15.00;72.99;101356.09;7361558;19;20656;-57
2022/10/19 06:40:09;;;;;;;0.00;0.00;;;;;;;14.86;72.99;101343.41;7361343;19;20036;-57
2022/10/19 06:42:38;;;;;;;0.00;0.00;;;;;;;14.98;73.01;101364.06;7363153;19;20015;-57
2022/10/19 06:45:07;;;;;;;0.00;0.00;;;;;;;14.98;73.28;101357.94;7362910;19;20006;-57
2022/10/19 06:47:34;;;;;;;0.00;0.00;;;;;;;14.96;73.37;101359.75;7362194;19;20021;-57
2022/10/19 06:50:00;;;;;;;0.00;0.00;;;;;;;14.87;73.16;101336.38;7360694;19;20121;-57
2022/10/19 06:52:25;;;;;;;0.00;0.00;;;;;;;14.97;73.55;101348.31;7360296;19;20014;-57
2022/10/19 06:54:51;;;;;;;0.00;0.00;;;;;;;14.97;73.20;101345.69;7362481;19;20014;-57
2022/10/19 06:57:16;;;;;;;0.00;0.00;;;;;;;14.98;73.22;101355.31;7367287;19;20014;-57
2022/10/19 06:59:41;;;;;;;0.00;0.00;;;;;;;14.98;73.62;101347.41;7367439;19;20007;-57
2022/10/19 07:02:09;;;;;;;0.08;0.08;;;;;;;14.97;73.35;101332.53;7364537;19;20042;-56
2022/10/19 07:04:34;;;;;;;0.00;0.00;;;;;;;14.95;73.37;101326.44;7366767;19;20007;-58
2022/10/19 07:07:00;;;;;;;0.00;0.00;;;;;;;14.98;73.56;101339.53;7365669;19;20037;-56
2022/10/19 07:09:25;;;;;;;0.00;0.00;;;;;;;14.97;73.16;101336.03;7366994;19;20593;-58
2022/10/19 07:11:51;;;;;;;0.00;0.00;;;;;;;14.93;73.27;101339.66;7359198;19;20018;-57
2022/10/19 07:14:16;;;;;;;0.00;0.00;;;;;;;14.96;73.24;101322.94;7365072;19;20021;-57
2022/10/19 07:16:41;;;;;;;0.00;0.00;;;;;;;14.97;73.44;101330.78;7366746;19;20010;-57
2022/10/19 07:19:07;;;;;;;0.00;0.00;;;;;;;14.97;73.57;101327.28;7367193;19;20050;-57
2022/10/19 07:21:34;;;;;;;0.00;0.00;;;;;;;14.98;73.57;101323.75;7369142;19;20010;-56
2022/10/19 07:24:00;;;;;;;0.08;0.08;;;;;;;14.93;73.69;101313.38;7366729;19;20039;-57
2022/10/19 07:26:27;;;;;;;0.00;0.00;;;;;;;14.93;73.78;101318.63;7369269;19;20750;-57
2022/10/19 07:28:55;;;;;;;0.10;0.10;;;;;;;14.95;73.97;101310.69;7355073;19;20768;-56
2022/10/19 07:31:22;;;;;;;0.00;0.00;;;;;;;14.96;73.90;101322.94;7343800;19;20010;-56
2022/10/19 07:33:54;;;;;;;0.00;0.00;;;;;;;14.97;73.35;101316.75;7355191;19;20585;-56
2022/10/19 07:36:20;;;;;;;0.00;0.00;;;;;;;14.94;74.05;101319.47;7357856;19;20014;-57
2022/10/19 07:38:45;;;;;;;0.00;0.00;;;;;;;14.93;73.77;101317.75;7354678;19;20010;-56
2022/10/19 07:41:14;;;;;;;0.00;0.00;;;;;;;14.94;74.20;101303.69;7351600;19;20022;-55
2022/10/19 07:43:43;;;;;;;0.00;0.00;;;;;;;14.94;73.91;101298.44;7354707;19;20034;-54
2022/10/19 07:46:12;;;;;;;0.00;0.00;;;;;;;14.95;73.81;101305.41;7358521;19;20025;-56
2022/10/19 07:48:38;;;;;;;0.00;0.00;;;;;;;14.78;74.40;101277.88;7356638;19;20010;-55
2022/10/19 07:51:05;;;;;;;0.00;0.00;;;;;;;14.94;74.16;101298.44;7357083;19;22543;-57
2022/10/19 07:53:31;;;;;;;0.10;0.10;;;;;;;14.92;74.15;101309.03;7355400;19;20014;-55
2022/10/19 07:56:14;;;;;;;0.00;0.00;;;;;;;14.85;72.85;101294.34;7356444;19;20029;-56
2022/10/19 07:58:40;;;;;;;0.00;0.00;;;;;;;14.92;74.08;101305.53;7354429;19;20776;-56
2022/10/19 08:01:08;;;;;;;0.00;0.00;;;;;;;14.93;73.82;101302.00;7353139;19;20014;-55
2022/10/19 08:03:34;;;;;;;0.00;0.00;;;;;;;14.92;74.13;101313.41;7357440;19;20674;-55
2022/10/19 08:06:05;;;;;;;0.00;0.00;;;;;;;14.93;73.76;101317.75;7357810;19;20011;-56
2022/10/19 08:08:31;;;;;;;0.00;0.00;;;;;;;14.79;74.34;101295.38;7355951;19;20018;-56
2022/10/19 08:10:57;;;;;;;0.00;0.00;;;;;;;14.90;74.67;101323.09;7355852;19;20077;-55
2022/10/19 08:13:23;;;;;;;0.00;0.00;;;;;;;14.91;74.12;101324.84;7356720;19;20011;-57
2022/10/19 08:15:49;;;;;;;0.00;0.00;;;;;;;14.89;74.29;101322.25;7357402;19;20085;-57
2022/10/19 08:18:15;;;;;;;0.00;0.00;;;;;;;14.91;74.51;101327.47;7358168;19;20358;-57
2022/10/19 08:20:42;;;;;;;0.00;0.00;;;;;;;14.92;74.81;101329.19;7358450;19;20090;-56
2022/10/19 08:23:07;;;;;;;0.03;0.03;;;;;;;14.92;74.41;101322.16;7359502;19;20035;-57
2022/10/19 08:25:33;;;;;;;0.00;0.00;;;;;;;14.87;74.59;101328.47;7358017;19;20478;-57
2022/10/19 08:27:59;;;;;;;0.00;0.00;;;;;;;14.95;75.00;101342.22;7355192;19;20016;-57
2022/10/19 08:30:24;;;;;;;0.00;0.00;;;;;;;14.95;74.66;101326.44;7356690;19;20616;-57
2022/10/19 08:32:50;;;;;;;0.00;0.00;;;;;;;14.97;74.69;101325.50;7345609;19;20010;-55
2022/10/19 08:35:15;;;;;;;0.10;0.10;;;;;;;14.93;74.69;101317.75;7350572;19;20021;-57
2022/10/19 08:37:40;;;;;;;0.00;0.00;;;;;;;14.99;74.42;101323.69;7352918;19;20032;-55
2022/10/19 08:40:17;;;;;;;0.00;0.00;;;;;;;14.99;74.03;101317.56;7353621;19;20022;-56
2022/10/19 08:42:59;;;;;;;0.00;0.00;;;;;;;15.07;73.63;101330.50;7352579;19;20017;-57
2022/10/19 08:45:44;;;;;;;0.00;0.00;;;;;;;15.08;73.71;101332.22;7351503;19;20011;-57
2022/10/19 08:48:18;;;;;;;0.00;0.00;;;;;;;15.06;74.54;101337.53;7350574;19;20007;-56
2022/10/19 08:50:45;;;;;;;0.00;0.00;;;;;;;15.03;74.41;101329.72;7344117;19;20836;-56
2022/10/19 08:53:31;;;;;;;0.00;0.00;;;;;;;15.07;73.15;101341.88;7351585;19;20031;-57
2022/10/19 08:55:59;;;;;;;0.00;0.00;;;;;;;15.02;74.29;101343.78;7356043;19;20026;-57
2022/10/19 08:58:39;;;;;;;0.00;0.00;;;;;;;15.06;74.15;101340.16;7353370;19;20052;-57
2022/10/19 09:01:13;;;;;;;0.00;0.00;;;;;;;14.99;74.82;101335.97;7358487;19;20097;-57
2022/10/19 09:03:49;;;;;;;0.00;0.00;;;;;;;15.04;73.82;101344.59;7353421;19;20359;-56
2022/10/19 09:06:25;;;;;;;0.00;0.00;;;;;;;15.02;74.35;101338.53;7354631;19;20017;-57
2022/10/19 09:08:52;;;;;;;0.00;0.00;;;;;;;15.02;75.02;101325.38;7353382;19;20023;-56
2022/10/19 09:11:30;;;;;;;0.00;0.00;;;;;;;15.06;74.10;101334.91;7349397;19;20346;-56
2022/10/19 09:14:13;;;;;;;0.00;0.00;;;;;;;15.06;73.63;101321.75;7354299;19;20473;-55
2022/10/19 09:16:39;;;;;;;0.00;0.00;;;;;;;15.01;75.11;101318.41;7355605;19;20002;-57
2022/10/19 09:19:28;;;;;;;0.08;0.08;;;;;;;15.08;73.37;101322.53;7351481;19;22175;-56
2022/10/19 09:22:25;;;;;;;0.10;0.10;;;;;;;15.08;73.79;101321.69;7244250;19;2004906;-57
2022/10/19 09:24:59;;;;;;;0.00;0.00;;;;;;;14.93;74.57;101302.00;7250479;19;2006239;-56
2022/10/19 09:27:46;;;;;;;0.00;0.00;;;;;;;15.07;74.47;101323.47;7353404;19;20648;-57
2022/10/19 09:30:18;;;;;;;0.10;0.10;;;;;;;15.07;74.46;101331.34;7349575;19;20011;-55
2022/10/19 09:32:44;;;;;;;0.00;0.00;;;;;;;15.03;74.85;101329.72;7351052;19;20010;-57
2022/10/19 09:35:35;;;;;;;0.00;0.00;;;;;;;15.07;73.61;101315.56;7353194;19;22201;-57
2022/10/19 09:38:01;;;;;;;0.00;0.00;;;;;;;14.85;74.58;101288.19;7254539;19;2004396;-57
2022/10/19 09:40:28;;;;;;;0.00;0.00;;;;;;;15.04;74.90;101321.78;7352887;19;20010;-56
2022/10/19 09:42:58;;;;;;;0.00;0.00;;;;;;;15.02;74.61;101322.75;7351295;19;20010;-55
2022/10/19 09:45:43;;;;;;;0.08;0.08;;;;;;;15.07;74.08;101320.84;7353482;19;20018;-54
2022/10/19 09:48:34;;;;;;;0.00;0.00;;;;;;;15.08;73.27;101317.28;7352600;19;20029;-57
2022/10/19 09:51:02;;;;;;;0.05;0.05;;;;;;;15.04;74.40;101321.78;7349971;19;20701;-56
2022/10/19 09:53:28;;;;;;;0.00;0.00;;;;;;;14.98;74.62;101294.81;7351621;19;20010;-57
2022/10/19 09:56:07;;;;;;;0.10;0.10;;;;;;;15.01;73.72;101295.59;7350273;19;20007;-57
2022/10/19 09:58:34;;;;;;;0.00;0.00;;;;;;;15.04;74.45;101299.88;7352660;19;20374;-57
2022/10/19 10:01:01;;;;;;;0.00;0.00;;;;;;;15.04;74.40;101306.00;7344036;19;20049;-56
2022/10/19 10:03:38;;;;;;;0.00;0.00;;;;;;;15.06;74.69;101303.34;7344365;19;20018;-56
2022/10/19 10:06:03;;;;;;;0.03;0.03;;;;;;;15.02;74.73;101291.19;7351875;19;20014;-57
2022/10/19 10:08:32;;;;;;;0.00;0.00;;;;;;;15.05;74.72;101297.22;7348168;19;21321;-56
2022/10/19 10:11:23;;;;;;;0.00;0.00;;;;;;;15.09;73.69;101291.84;7349423;19;20035;-57
2022/10/19 10:13:51;;;;;;;0.00;0.00;;;;;;;14.95;74.93;101279.13;7248617;19;2004347;-56
2022/10/19 10:16:21;;;;;;;0.00;0.00;;;;;;;15.05;74.81;101294.59;7351786;19;20021;-54
2022/10/19 10:18:54;;;;;;;0.00;0.00;;;;;;;15.08;74.62;101305.91;7350869;19;20007;-57
2022/10/19 10:21:22;;;;;;;0.00;0.00;;;;;;;15.05;75.08;101297.22;7351314;19;20041;-55
2022/10/19 10:24:19;;;;;;;0.00;0.00;;;;;;;15.09;73.42;101303.22;7349519;19;20395;-57
2022/10/19 10:26:53;;;;;;;0.00;0.00;;;;;;;15.07;74.20;101294.53;7239222;19;2004555;-56
2022/10/19 10:29:31;;;;;;;0.00;0.00;;;;;;;15.07;74.08;101286.63;7346217;19;20014;-54
2022/10/19 10:32:17;;;;;;;0.03;0.03;;;;;;;15.07;74.47;101281.38;7339779;19;20030;-57
2022/10/19 10:34:46;;;;;;;0.00;0.00;;;;;;;15.04;74.92;101273.56;7340266;19;20015;-57
2022/10/19 10:37:20;;;;;;;0.00;0.00;;;;;;;15.07;74.49;101267.38;7349489;19;20411;-57
2022/10/19 10:39:51;;;;;;;0.05;0.05;;;;;;;15.01;74.58;101252.66;7348530;19;20556;-57
2022/10/19 10:42:23;;;;;;;0.05;0.05;;;;;;;15.03;74.50;101250.81;7346582;19;20021;-56
2022/10/19 10:44:51;;;;;;;0.00;0.00;;;;;;;15.03;74.63;101235.03;7348631;19;20011;-53
2022/10/19 10:47:21;;;;;;;0.00;0.00;;;;;;;15.05;74.65;101227.94;7348808;19;20711;-56
2022/10/19 10:50:01;;;;;;;0.00;0.00;;;;;;;15.07;74.13;101226.13;7349117;19;20634;-57
2022/10/19 10:52:30;;;;;;;0.00;0.00;;;;;;;15.02;74.98;101215.75;7344246;19;21238;-56
2022/10/19 10:55:07;;;;;;;0.00;0.00;;;;;;;15.06;74.61;101216.53;7331377;19;20014;-57
2022/10/19 10:57:39;;;;;;;0.00;0.00;;;;;;;15.06;74.38;101211.28;7338100;19;20017;-57
2022/10/19 11:00:23;;;;;;;0.00;0.00;;;;;;;15.08;73.80;101212.06;7337543;19;20018;-55
2022/10/19 11:03:01;;;;;;;0.00;0.00;;;;;;;15.07;74.84;101191.94;7344494;19;20043;-56
2022/10/19 11:05:44;;;;;;;0.00;0.00;;;;;;;15.07;74.17;101189.31;7346500;19;20014;-56
2022/10/19 11:08:28;;;;;;;0.00;0.00;;;;;;;15.04;74.72;101192.88;7347951;19;20011;-56
2022/10/19 11:11:03;;;;;;;0.00;0.00;;;;;;;15.07;74.55;101210.34;7346791;19;20018;-57
2022/10/19 11:13:34;;;;;;;0.00;0.00;;;;;;;15.05;74.54;101207.78;7342746;19;20029;-55
2022/10/19 11:16:08;;;;;;;0.00;0.00;;;;;;;15.06;74.57;101206.00;7344873;19;20933;-56
2022/10/19 11:18:40;;;;;;;0.00;0.00;;;;;;;15.05;74.46;101218.31;7344276;19;20712;-57
2022/10/19 11:21:28;;;;;;;0.00;0.00;;;;;;;15.09;73.86;101210.28;7335515;19;20010;-56
2022/10/19 11:24:17;;;;;;;0.00;0.00;;;;;;;15.08;73.61;101212.06;7329920;19;20018;-57
2022/10/19 11:26:55;;;;;;;0.00;0.00;;;;;;;15.07;74.00;101194.56;7335487;19;20503;-57
2022/10/19 11:29:39;;;;;;;0.00;0.00;;;;;;;15.08;73.49;101191.03;7339989;19;20515;-57
2022/10/19 11:32:16;;;;;;;0.08;0.08;;;;;;;15.05;73.86;101181.47;7339964;19;20764;-57
2022/10/19 11:35:19;;;;;;;0.00;0.00;;;;;;;15.06;73.91;101161.28;7334988;19;20006;-57
2022/10/19 11:37:59;;;;;;;0.00;0.00;;;;;;;15.03;73.75;101166.66;7236670;19;2004288;-57